Time;durP1;ratioP1;P1;durP2;ratioP2;P2;SDS_P1;SDS_P2;PMS_P1;PMS_P2;Temp;Humidity;BMP_temperature;BMP_pressure;BME280_temperature;BME280_humidity;BME280_pressure;Samples;Min_cycle;Max_cycle;Signal;HPM_P1;HPM_P2
2023/04/10 00:00:55;;;;;;;;;17.75;16.25;;;;;14.89;66.24;100877.78;5060532;28;45525;-79
2023/04/10 00:03:22;;;;;;;;;16.25;15.50;;;;;14.89;65.90;100871.66;5068323;28;45505;-68
2023/04/10 00:05:48;;;;;;;;;22.00;18.00;;;;;14.87;66.11;100874.25;5075414;28;45385;-68
2023/04/10 00:08:14;;;;;;;;;17.00;16.50;;;;;14.85;66.58;100868.06;5062142;28;45337;-70
2023/04/10 00:10:39;;;;;;;;;19.00;16.25;;;;;14.81;66.77;100868.88;5066917;28;45806;-70
2023/04/10 00:13:05;;;;;;;;;15.50;13.75;;;;;14.67;66.32;100854.59;5062522;28;45366;-71
2023/04/10 00:15:31;;;;;;;;;17.50;17.00;;;;;14.66;66.33;100845.84;5070996;28;45393;-68
2023/04/10 00:17:56;;;;;;;;;17.25;16.25;;;;;14.66;66.31;100866.88;5063990;28;45444;-68
2023/04/10 00:20:22;;;;;;;;;16.00;14.75;;;;;14.29;66.22;100805.69;5074293;28;45416;-78
2023/04/10 00:22:48;;;;;;;;;13.75;13.25;;;;;14.67;66.05;100873.88;5071748;28;45424;-68
2023/04/10 00:25:14;;;;;;;;;19.75;16.00;;;;;14.74;66.09;100871.38;5067691;28;45529;-78
2023/04/10 00:27:40;;;;;;;;;20.50;19.00;;;;;14.77;65.69;100872.31;5067265;28;45381;-77
2023/04/10 00:30:06;;;;;;;;;20.25;18.75;;;;;14.77;65.91;100861.78;5062824;28;45368;-79
2023/04/10 00:32:31;;;;;;;;;20.50;17.25;;;;;14.64;66.09;100842.28;5074930;28;45427;-68
2023/04/10 00:34:57;;;;;;;;;20.50;18.50;;;;;14.69;66.34;100855.50;5067354;28;46487;-68
2023/04/10 00:37:22;;;;;;;;;16.50;14.25;;;;;14.62;66.73;100856.25;5067616;28;45578;-67
2023/04/10 00:39:48;;;;;;;;;20.00;18.00;;;;;14.59;66.67;100856.22;5064481;28;45458;-68
2023/04/10 00:42:16;;;;;;;;;5.00;3.00;;;;;14.58;66.25;100852.66;5067346;28;45470;-68
2023/04/10 00:44:42;;;;;;;;;20.50;18.25;;;;;14.61;65.89;100846.59;5067994;28;45429;-67
2023/04/10 00:47:07;;;;;;;;;21.00;19.75;;;;;14.54;66.76;100856.06;5050027;28;45553;-67
2023/04/10 00:49:34;;;;;;;;;16.75;15.75;;;;;14.50;66.25;100857.78;5066895;28;45362;-68
2023/04/10 00:52:00;;;;;;;;;17.50;15.25;;;;;14.50;66.52;100857.78;5068569;28;45407;-74
2023/04/10 00:54:25;;;;;;;;;15.25;13.75;;;;;14.49;66.43;100861.25;5061247;28;46259;-77
2023/04/10 00:56:51;;;;;;;;;21.25;15.50;;;;;14.45;66.51;100848.03;5070803;28;45513;-79
2023/04/10 00:59:17;;;;;;;;;21.00;20.00;;;;;14.44;66.43;100848.88;5066417;28;45550;-68
2023/04/10 01:01:43;;;;;;;;;19.50;19.00;;;;;14.43;66.22;100860.25;5072567;28;45436;-79
2023/04/10 01:04:09;;;;;;;;;18.00;16.25;;;;;14.39;66.79;100867.19;5051405;28;45978;-79
2023/04/10 01:06:59;;;;;;;;;17.50;16.00;;;;;14.24;67.57;100864.25;5071847;28;46103;-79
2023/04/10 01:09:47;;;;;;;;;19.00;17.00;;;;;14.22;67.67;100865.97;5055803;28;45498;-71
2023/04/10 01:12:48;;;;;;;;;18.00;15.50;;;;;14.18;67.90;100864.13;5067989;28;45373;-76
2023/04/10 01:15:20;;;;;;;;;20.75;19.00;;;;;14.02;68.48;100857.66;5024436;28;45583;-79
2023/04/10 01:18:17;;;;;;;;;21.50;20.75;;;;;13.99;67.78;100861.13;5069356;28;45488;-78
2023/04/10 01:20:43;;;;;;;;;18.75;16.00;;;;;13.96;67.92;100861.06;5067238;28;45529;-73
2023/04/10 01:23:46;;;;;;;;;24.00;19.50;;;;;13.90;68.49;100860.91;5065414;28;45477;-68
2023/04/10 01:26:16;;;;;;;;;21.75;19.00;;;;;13.87;68.08;100858.25;5065047;28;46113;-68
2023/04/10 01:29:03;;;;;;;;;18.50;17.50;;;;;13.86;67.72;100853.84;5067877;28;45472;-67
2023/04/10 01:31:34;;;;;;;;;21.50;18.00;;;;;13.89;68.24;100861.78;5063496;28;45497;-68
2023/04/10 01:34:06;;;;;;;;;18.25;17.25;;;;;13.89;68.01;100854.78;5068224;28;45352;-77
2023/04/10 01:36:36;;;;;;;;;19.00;18.25;;;;;13.93;68.05;100855.75;5065823;28;45441;-68
2023/04/10 01:39:04;;;;;;;;;19.50;17.75;;;;;13.97;67.74;100857.59;5050740;28;45405;-79
2023/04/10 01:41:32;;;;;;;;;22.75;19.00;;;;;13.99;68.01;100852.38;5070858;28;45365;-68
2023/04/10 01:43:59;;;;;;;;;16.75;16.50;;;;;14.02;67.81;100860.28;5068545;28;45456;-68
2023/04/10 01:46:27;;;;;;;;;21.50;19.50;;;;;14.05;67.46;100858.63;5069768;28;46068;-78
2023/04/10 01:48:54;;;;;;;;;20.00;18.75;;;;;14.11;67.54;100853.50;5054142;28;45461;-79
2023/04/10 01:51:22;;;;;;;;;18.00;18.00;;;;;14.11;67.17;100836.84;5070427;28;45363;-72
2023/04/10 01:53:50;;;;;;;;;20.75;19.75;;;;;14.13;68.37;100850.91;5067488;28;45429;-68
2023/04/10 01:56:16;;;;;;;;;19.50;19.00;;;;;14.11;68.42;100843.00;5067500;28;46341;-79
2023/04/10 01:58:41;;;;;;;;;16.00;14.00;;;;;14.13;68.00;100843.03;5067273;28;45502;-79
2023/04/10 02:01:07;;;;;;;;;21.50;18.50;;;;;14.07;67.57;100817.50;5069913;28;45547;-68
2023/04/10 02:03:33;;;;;;;;;21.00;20.00;;;;;14.22;67.20;100821.28;5070568;28;46152;-69
2023/04/10 02:06:07;;;;;;;;;20.25;18.75;;;;;14.27;67.53;100820.53;5051468;28;46481;-69
2023/04/10 02:08:38;;;;;;;;;21.00;19.00;;;;;14.19;67.69;100808.13;5070470;28;45368;-68
2023/04/10 02:11:15;;;;;;;;;19.25;18.75;;;;;14.29;67.30;100813.56;5078444;28;45393;-68
2023/04/10 02:13:41;;;;;;;;;17.50;17.50;;;;;14.30;67.81;100806.56;5080106;28;45449;-68
2023/04/10 02:16:08;;;;;;;;;19.25;19.00;;;;;14.27;67.49;100796.88;5079318;28;45352;-68
2023/04/10 02:18:35;;;;;;;;;22.50;19.25;;;;;14.26;68.28;100794.22;5079741;27;45379;-68
2023/04/10 02:21:02;;;;;;;;;20.00;18.00;;;;;14.23;67.88;100779.28;5079869;28;45283;-68
2023/04/10 02:23:28;;;;;;;;;18.75;16.75;;;;;14.13;68.10;100748.44;5083156;27;45497;-68
2023/04/10 02:25:55;;;;;;;;;20.00;17.25;;;;;14.23;68.21;100765.28;5088849;28;45394;-69
2023/04/10 02:28:21;;;;;;;;;20.75;18.50;;;;;14.18;67.99;100764.28;5087097;28;45296;-70
2023/04/10 02:30:47;;;;;;;;;17.25;17.00;;;;;14.08;68.40;100769.34;5085280;28;45378;-71
2023/04/10 02:33:12;;;;;;;;;18.50;18.00;;;;;14.07;68.50;100778.09;5083563;28;45312;-68
2023/04/10 02:35:38;;;;;;;;;17.75;16.50;;;;;13.94;68.82;100778.72;5063993;28;46357;-68
2023/04/10 02:38:03;;;;;;;;;18.50;16.75;;;;;13.74;69.44;100783.56;5079973;28;45362;-68
2023/04/10 02:40:29;;;;;;;;;23.25;20.25;;;;;13.61;69.93;100782.44;5080073;28;45311;-68
2023/04/10 02:42:55;;;;;;;;;18.50;17.75;;;;;13.47;70.25;100776.00;5080216;28;45382;-68
2023/04/10 02:45:21;;;;;;;;;20.25;20.25;;;;;13.44;70.18;100778.56;5078896;28;45435;-68
2023/04/10 02:47:46;;;;;;;;;19.00;17.75;;;;;13.39;69.88;100781.09;5079570;28;45379;-68
2023/04/10 02:50:12;;;;;;;;;18.50;17.25;;;;;13.42;69.93;100780.25;5060112;28;45468;-68
2023/04/10 02:52:40;;;;;;;;;20.00;17.50;;;;;13.48;69.77;100791.75;5078597;28;45531;-68
2023/04/10 02:55:06;;;;;;;;;20.50;19.00;;;;;13.52;69.60;100776.97;5074468;28;45294;-68
2023/04/10 02:57:31;;;;;;;;;17.25;15.75;;;;;13.47;69.36;100763.75;5078347;28;45224;-68
2023/04/10 02:59:57;;;;;;;;;22.50;19.75;;;;;13.58;68.99;100770.97;5073742;28;45513;-68
2023/04/10 03:02:22;;;;;;;;;19.75;19.00;;;;;13.55;69.72;100769.19;5071657;28;45436;-68
2023/04/10 03:04:48;;;;;;;;;19.25;17.75;;;;;13.53;69.28;100768.25;5077698;28;46016;-79
2023/04/10 03:07:14;;;;;;;;;19.75;18.00;;;;;13.56;69.23;100764.81;5077936;28;45711;-67
2023/04/10 03:09:39;;;;;;;;;20.75;19.00;;;;;13.51;69.49;100762.97;5076934;28;45351;-80
2023/04/10 03:12:05;;;;;;;;;21.25;18.50;;;;;13.39;70.01;100756.56;5078695;28;45670;-69
2023/04/10 03:14:30;;;;;;;;;19.25;18.75;;;;;13.46;69.88;100764.59;5078460;28;46163;-80
2023/04/10 03:16:56;;;;;;;;;22.00;19.00;;;;;13.48;69.83;100765.50;5077777;28;45386;-80
2023/04/10 03:19:21;;;;;;;;;18.75;18.00;;;;;13.44;69.90;100761.06;5078092;28;45744;-68
2023/04/10 03:21:47;;;;;;;;;21.75;21.25;;;;;13.42;69.78;100761.88;5070612;28;45513;-72
2023/04/10 03:24:12;;;;;;;;;20.00;16.00;;;;;13.43;69.94;100763.63;5069445;28;45870;-79
2023/04/10 03:26:38;;;;;;;;;20.75;19.75;;;;;13.37;69.66;100769.66;5078002;28;45385;-68
2023/04/10 03:29:03;;;;;;;;;21.75;19.00;;;;;13.34;70.16;100782.69;5052517;28;45595;-68
2023/04/10 03:31:29;;;;;;;;;20.00;18.25;;;;;13.27;70.30;100786.00;5074882;28;45421;-79
2023/04/10 03:33:55;;;;;;;;;24.00;20.00;;;;;13.07;71.02;100791.69;5062934;28;45850;-68
2023/04/10 03:36:21;;;;;;;;;21.75;19.25;;;;;12.95;70.86;100807.09;5077719;28;45413;-68
2023/04/10 03:38:46;;;;;;;;;20.75;19.50;;;;;12.87;71.44;100812.19;5078174;27;45445;-68
2023/04/10 03:41:12;;;;;;;;;20.25;19.75;;;;;12.81;72.07;100811.13;5077940;28;45299;-68
2023/04/10 03:43:38;;;;;;;;;21.00;20.00;;;;;12.78;72.03;100814.56;5078423;28;45498;-68
2023/04/10 03:46:03;;;;;;;;;18.25;16.50;;;;;12.59;70.96;100797.47;5078133;28;45161;-68
2023/04/10 03:48:30;;;;;;;;;21.50;20.00;;;;;12.65;71.68;100804.59;5072896;28;45507;-79
2023/04/10 03:50:56;;;;;;;;;18.75;17.75;;;;;12.71;70.99;100821.41;5073534;28;45307;-70
2023/04/10 03:53:22;;;;;;;;;20.75;20.50;;;;;12.68;71.31;100804.69;5076789;28;45778;-78
2023/04/10 03:55:47;;;;;;;;;23.25;20.50;;;;;12.77;71.19;100814.53;5069507;28;45371;-68
2023/04/10 03:58:13;;;;;;;;;26.75;22.00;;;;;12.75;70.95;100806.59;5069202;28;45493;-79
2023/04/10 04:00:39;;;;;;;;;23.00;22.50;;;;;12.76;70.86;100794.41;5077869;28;45573;-68
2023/04/10 04:03:04;;;;;;;;;18.50;18.50;;;;;12.68;71.51;100786.34;5077386;28;46088;-80
2023/04/10 04:05:31;;;;;;;;;19.00;18.50;;;;;12.66;71.66;100793.28;5077488;28;45467;-68
2023/04/10 04:07:56;;;;;;;;;19.50;19.00;;;;;12.74;71.34;100802.22;5077198;28;45351;-68
2023/04/10 04:10:23;;;;;;;;;26.25;22.25;;;;;12.76;71.48;100787.44;5077620;28;45492;-68
2023/04/10 04:12:48;;;;;;;;;23.50;20.25;;;;;12.76;71.57;100792.66;5077301;28;45606;-68
2023/04/10 04:15:14;;;;;;;;;23.50;17.25;;;;;12.73;71.58;100795.19;5076569;28;45491;-69
2023/04/10 04:17:40;;;;;;;;;19.00;17.75;;;;;12.57;71.96;100777.31;5076902;28;45553;-68
2023/04/10 04:20:06;;;;;;;;;23.00;21.50;;;;;12.65;72.01;100804.59;5071487;28;45540;-68
2023/04/10 04:22:31;;;;;;;;;20.50;18.50;;;;;12.63;72.26;100806.31;5066638;28;46210;-68
2023/04/10 04:24:57;;;;;;;;;19.00;18.00;;;;;12.61;72.46;100808.88;5076768;28;45407;-68
2023/04/10 04:27:22;;;;;;;;;21.50;20.50;;;;;12.61;72.08;100805.38;5076527;28;45304;-79
2023/04/10 04:29:48;;;;;;;;;21.25;17.75;;;;;12.62;71.86;100817.66;5077196;28;45457;-68
2023/04/10 04:32:14;;;;;;;;;25.25;20.00;;;;;12.65;71.90;100823.88;5072217;27;46031;-69
2023/04/10 04:34:39;;;;;;;;;15.25;14.25;;;;;12.75;72.09;100830.19;5069783;28;45474;-69
2023/04/10 04:37:05;;;;;;;;;21.00;19.75;;;;;12.74;71.72;100825.81;5042430;28;45448;-70
2023/04/10 04:39:30;;;;;;;;;23.50;21.00;;;;;12.82;71.50;100839.13;5073207;28;45492;-68
2023/04/10 04:41:56;;;;;;;;;20.50;19.75;;;;;12.91;71.18;100852.44;5072952;28;46318;-80
2023/04/10 04:44:21;;;;;;;;;17.25;15.50;;;;;12.91;70.75;100853.38;5064378;28;46234;-80
2023/04/10 04:46:47;;;;;;;;;20.50;19.25;;;;;12.84;70.83;100822.59;5076251;28;45457;-69
2023/04/10 04:49:12;;;;;;;;;24.25;20.75;;;;;12.89;71.06;100830.56;5077118;28;45383;-72
2023/04/10 04:51:38;;;;;;;;;24.00;20.50;;;;;12.81;71.51;100819.00;5077003;28;46100;-68
2023/04/10 04:54:04;;;;;;;;;19.00;18.25;;;;;12.83;71.63;100830.41;5076006;28;45559;-73
2023/04/10 04:56:30;;;;;;;;;19.75;19.00;;;;;12.87;71.72;100841.03;5058839;28;45357;-73
2023/04/10 04:58:55;;;;;;;;;23.25;21.00;;;;;12.85;71.52;100840.09;5076952;28;45354;-80
2023/04/10 05:01:21;;;;;;;;;20.25;20.00;;;;;12.82;71.01;100834.75;5074493;28;45341;-80
2023/04/10 05:03:46;;;;;;;;;22.75;20.75;;;;;12.81;71.69;100833.00;5076595;28;45571;-69
2023/04/10 05:06:13;;;;;;;;;17.25;15.75;;;;;12.72;71.31;100848.50;5076042;28;45465;-68
2023/04/10 05:08:38;;;;;;;;;18.00;17.25;;;;;12.71;71.69;100841.47;5076863;28;45473;-68
2023/04/10 05:11:04;;;;;;;;;19.50;18.00;;;;;12.68;71.48;100836.16;5076279;28;45504;-68
2023/04/10 05:13:30;;;;;;;;;18.25;17.25;;;;;12.59;71.30;100820.19;5075600;28;45761;-68
2023/04/10 05:15:55;;;;;;;;;22.00;19.75;;;;;12.65;71.60;100826.50;5075788;28;45547;-67
2023/04/10 05:18:22;;;;;;;;;20.00;18.25;;;;;12.62;72.03;100831.63;5076255;28;45488;-68
2023/04/10 05:20:48;;;;;;;;;18.50;17.25;;;;;12.57;71.72;100821.88;5076209;28;46230;-76
2023/04/10 05:23:15;;;;;;;;;19.50;17.00;;;;;12.62;71.89;100831.63;5076332;28;45553;-76
2023/04/10 05:25:41;;;;;;;;;17.00;16.50;;;;;12.54;71.87;100820.06;5075925;28;45371;-79
2023/04/10 05:28:07;;;;;;;;;20.00;19.00;;;;;12.65;71.78;100833.44;5077226;28;45491;-76
2023/04/10 05:30:32;;;;;;;;;23.00;18.75;;;;;12.65;71.51;100838.69;5075714;28;46086;-80
2023/04/10 05:32:58;;;;;;;;;24.00;22.50;;;;;12.41;72.11;100821.47;5059790;28;45498;-74
2023/04/10 05:35:23;;;;;;;;;28.50;25.00;;;;;12.39;72.18;100853.72;5080043;28;45428;-80
2023/04/10 05:37:49;;;;;;;;;21.00;19.00;;;;;12.30;72.20;100860.47;5058965;28;45465;-80
2023/04/10 05:40:14;;;;;;;;;23.00;19.50;;;;;12.21;72.49;100867.19;5077083;28;45266;-80
2023/04/10 05:42:40;;;;;;;;;20.75;20.00;;;;;12.14;72.63;100869.63;5055957;28;45556;-80
2023/04/10 05:45:06;;;;;;;;;20.25;20.00;;;;;12.10;73.11;100877.38;5069250;28;45459;-80
2023/04/10 05:47:31;;;;;;;;;23.50;20.75;;;;;12.06;73.21;100885.97;5080018;28;45629;-79
2023/04/10 05:49:57;;;;;;;;;25.00;23.00;;;;;12.02;72.97;100892.84;5078841;28;45484;-70
2023/04/10 05:52:22;;;;;;;;;28.75;23.75;;;;;11.94;73.84;100902.22;5061216;28;45380;-80
2023/04/10 05:54:48;;;;;;;;;23.00;21.75;;;;;11.84;73.65;100902.75;5079026;28;45750;-68
2023/04/10 05:57:14;;;;;;;;;21.25;19.25;;;;;11.87;73.40;100897.59;5060819;28;45628;-68
2023/04/10 05:59:40;;;;;;;;;23.50;20.75;;;;;12.02;72.97;100915.53;5079251;28;46282;-79
2023/04/10 06:02:05;;;;;;;;;21.00;21.00;;;;;12.05;73.35;100926.97;5079492;28;45298;-79
2023/04/10 06:04:31;;;;;;;;;22.00;21.75;;;;;12.11;72.94;100918.41;5079319;28;45436;-80
2023/04/10 06:06:57;;;;;;;;;23.00;20.50;;;;;12.14;72.34;100905.41;5079391;28;45536;-68
2023/04/10 06:09:22;;;;;;;;;23.75;20.75;;;;;12.24;72.16;100925.78;5077072;28;45632;-80
2023/04/10 06:11:48;;;;;;;;;20.00;19.50;;;;;12.27;72.01;100932.84;5072899;28;45445;-68
2023/04/10 06:14:13;;;;;;;;;22.00;21.00;;;;;12.32;72.38;100939.13;5070013;28;45423;-75
2023/04/10 06:16:39;;;;;;;;;49.25;41.00;;;;;12.37;72.16;100934.88;5075223;28;45492;-79
2023/04/10 06:19:05;;;;;;;;;25.50;22.75;;;;;12.45;71.94;100935.97;5076384;27;46154;-79
2023/04/10 06:21:31;;;;;;;;;21.25;19.25;;;;;12.55;71.40;100934.50;5075054;28;45547;-69
2023/04/10 06:23:56;;;;;;;;;21.75;20.00;;;;;12.63;71.10;100933.00;5077442;28;45660;-72
2023/04/10 06:26:24;;;;;;;;;21.25;19.00;;;;;12.68;70.48;100935.75;5066680;28;45394;-81
2023/04/10 06:28:50;;;;;;;;;20.25;18.75;;;;;12.73;71.02;100944.63;5075037;28;45868;-80
2023/04/10 06:31:18;;;;;;;;;22.33;18.67;;;;;12.71;70.91;100952.47;5074689;28;45785;-68
2023/04/10 06:33:44;;;;;;;;;23.00;18.00;;;;;12.76;71.02;100980.53;5078734;28;45579;-80
2023/04/10 06:36:09;;;;;;;;;20.75;19.25;;;;;12.76;70.69;100976.19;5064197;28;45510;-68
2023/04/10 06:38:36;;;;;;;;;21.25;18.75;;;;;12.86;70.66;100991.31;5077121;28;45854;-72
2023/04/10 06:41:04;;;;;;;;;21.50;17.50;;;;;12.91;70.45;100999.28;5077015;28;45391;-78
2023/04/10 06:43:31;;;;;;;;;21.00;18.50;;;;;13.00;69.95;100991.69;5077701;28;45920;-80
2023/04/10 06:45:57;;;;;;;;;21.50;19.25;;;;;13.26;69.69;100994.13;5078389;28;45510;-80
2023/04/10 06:48:22;;;;;;;;;24.00;21.25;;;;;13.48;69.58;100996.47;5066088;28;45774;-80
2023/04/10 06:50:48;;;;;;;;;22.25;19.00;;;;;13.64;69.03;101000.38;5077340;28;45378;-79
2023/04/10 06:53:13;;;;;;;;;23.50;22.00;;;;;13.81;68.69;101000.78;5077788;28;45444;-80
2023/04/10 06:55:39;;;;;;;;;21.50;19.75;;;;;13.97;67.55;100994.16;5069933;27;45240;-80
2023/04/10 06:58:04;;;;;;;;;23.75;21.00;;;;;13.90;67.79;100990.50;5077501;28;46211;-79
2023/04/10 07:00:30;;;;;;;;;22.75;20.25;;;;;14.02;67.59;100999.53;5076087;28;45556;-80
2023/04/10 07:02:56;;;;;;;;;23.25;22.00;;;;;14.21;67.42;101006.97;5077612;28;45402;-79
2023/04/10 07:05:22;;;;;;;;;20.75;19.00;;;;;14.35;67.06;101007.28;5078078;28;45449;-78
2023/04/10 07:07:49;;;;;;;;;26.25;22.75;;;;;14.53;66.08;101012.91;5076933;28;45980;-78
2023/04/10 07:10:15;;;;;;;;;24.25;22.50;;;;;14.56;66.20;101005.97;5071366;28;45374;-81
2023/04/10 07:12:40;;;;;;;;;18.75;18.00;;;;;14.75;66.18;101017.78;5072006;28;45523;-77
2023/04/10 07:15:07;;;;;;;;;15.25;14.25;;;;;14.87;65.79;101025.94;5075345;28;45768;-80
2023/04/10 07:17:32;;;;;;;;;19.75;18.25;;;;;15.03;65.08;101030.63;5059221;28;47950;-80
2023/04/10 07:19:58;;;;;;;;;20.50;19.25;;;;;15.18;64.80;101034.41;5077840;28;45574;-78
2023/04/10 07:22:24;;;;;;;;;18.00;16.75;;;;;15.24;64.56;101037.16;5075307;28;45413;-78
2023/04/10 07:24:50;;;;;;;;;21.00;19.75;;;;;15.47;63.70;101042.84;5078302;28;45355;-78
2023/04/10 07:27:16;;;;;;;;;21.50;18.75;;;;;16.03;62.71;101035.03;5077674;28;45443;-78
2023/04/10 07:29:41;;;;;;;;;21.75;18.50;;;;;16.61;61.39;101036.72;5075001;28;45928;-80
2023/04/10 07:32:07;;;;;;;;;22.75;19.50;;;;;17.07;59.92;101045.25;5056105;28;45792;-82
2023/04/10 07:34:32;;;;;;;;;25.25;22.25;;;;;18.03;57.19;101044.41;5072958;28;45896;-81
2023/04/10 07:36:58;;;;;;;;;23.25;22.25;;;;;18.77;55.88;101051.00;5064918;28;45489;-82
2023/04/10 07:39:23;;;;;;;;;16.75;16.75;;;;;19.81;51.69;101044.22;5076524;28;45524;-81
2023/04/10 07:41:49;;;;;;;;;24.00;22.25;;;;;20.68;49.96;101045.88;5077838;28;45410;-81
2023/04/10 07:44:16;;;;;;;;;18.25;18.25;;;;;21.28;49.15;101048.22;5078455;28;45251;-82
2023/04/10 07:46:42;;;;;;;;;18.25;16.50;;;;;22.31;47.39;101054.53;5077521;28;46121;-81
2023/04/10 07:49:07;;;;;;;;;15.50;14.50;;;;;23.25;46.42;101062.28;5077463;28;45896;-81
2023/04/10 07:51:33;;;;;;;;;17.75;16.00;;;;;23.98;44.61;101049.59;5077369;28;45532;-82
2023/04/10 07:53:58;;;;;;;;;19.00;18.75;;;;;24.53;42.75;101052.19;5077482;28;45504;-81
2023/04/10 07:56:24;;;;;;;;;26.00;23.75;;;;;24.94;40.58;101056.66;5076797;28;46100;-81
2023/04/10 07:58:50;;;;;;;;;17.33;16.00;;;;;25.52;39.57;101067.00;5076504;28;45457;-81
2023/04/10 08:01:16;;;;;;;;;21.33;17.00;;;;;25.47;38.52;101075.13;5075448;27;45609;-77
2023/04/10 08:03:44;;;;;;;;;15.33;14.67;;;;;24.74;41.43;101078.47;5075823;28;45489;-75
2023/04/10 08:06:10;;;;;;;;;13.00;12.00;;;;;25.18;40.59;101084.66;5076353;28;45501;-78
2023/04/10 08:08:40;;;;;;;;;14.67;13.67;;;;;26.34;37.69;101076.53;5074769;28;45458;-79
2023/04/10 08:11:28;;;;;;;;;16.00;13.67;;;;;27.13;38.10;101081.44;5073420;28;45494;-79
2023/04/10 08:14:00;;;;;;;;;15.00;13.67;;;;;27.13;36.50;101094.00;5077127;27;45479;-78
2023/04/10 08:16:31;;;;;;;;;15.33;14.00;;;;;26.48;38.49;101089.56;5076882;27;46038;-77
2023/04/10 08:18:57;;;;;;;;;19.67;17.67;;;;;26.09;38.41;101079.00;5075918;28;45487;-79
2023/04/10 08:21:25;;;;;;;;;13.00;13.00;;;;;25.94;38.66;101088.31;5073054;28;46117;-78
2023/04/10 08:23:53;;;;;;;;;17.00;15.67;;;;;25.24;38.30;101088.16;5071274;28;45533;-77
2023/04/10 08:26:18;;;;;;;;;16.33;15.00;;;;;24.80;39.61;101083.69;5075848;28;45542;-78
2023/04/10 08:28:49;;;;;;;;;14.00;14.00;;;;;24.25;40.20;101082.03;5066125;27;45574;-79
2023/04/10 08:31:19;;;;;;;;;14.00;13.00;;;;;23.91;40.82;101076.41;5075417;28;45528;-78
2023/04/10 08:33:45;;;;;;;;;18.33;15.00;;;;;23.78;42.11;101078.41;5058148;28;45595;-79
2023/04/10 08:36:17;;;;;;;;;15.00;14.00;;;;;24.04;41.48;101061.97;5075474;27;46286;-78
2023/04/10 08:38:44;;;;;;;;;15.00;14.33;;;;;24.36;40.06;101072.06;5072756;28;45380;-80
2023/04/10 08:41:12;;;;;;;;;18.33;16.00;;;;;24.80;39.68;101066.78;5074470;27;45382;-81
2023/04/10 08:43:38;;;;;;;;;19.00;17.00;;;;;25.16;38.61;101064.22;5075568;27;45479;-81
2023/04/10 08:46:04;;;;;;;;;14.33;14.00;;;;;26.03;37.33;101057.75;5073368;28;45580;-81
2023/04/10 08:48:52;;;;;;;;;14.67;14.33;;;;;26.92;36.86;101048.13;5073065;27;46009;-67
2023/04/10 08:51:25;;;;;;;;;16.33;15.00;;;;;27.73;35.64;101055.41;5074527;28;45528;-82
2023/04/10 08:53:57;;;;;;;;;12.67;12.67;;;;;28.85;34.28;101050.63;5072956;28;45497;-71
2023/04/10 08:56:23;;;;;;;;;14.00;13.33;;;;;29.17;31.79;101047.63;5076340;28;46094;-83
2023/04/10 08:58:50;;;;;;;;;16.00;14.00;;;;;29.96;30.89;101030.03;5076039;28;45430;-71
2023/04/10 09:01:19;;;;;;;;;18.33;17.33;;;;;30.00;31.21;101012.78;5069219;28;45921;-69
2023/04/10 09:03:47;;;;;;;;;15.33;14.33;;;;;30.49;31.24;101007.94;5073263;28;45501;-68
2023/04/10 09:06:12;;;;;;;;;13.00;12.33;;;;;30.87;29.76;100996.28;5074764;28;46170;-70
2023/04/10 09:08:38;;;;;;;;;13.00;13.00;;;;;30.96;29.40;101012.09;5061205;28;45591;-86
2023/04/10 09:11:04;;;;;;;;;11.67;11.33;;;;;31.26;29.83;101006.16;5074981;28;45359;-74
2023/04/10 09:13:41;;;;;;;;;13.00;12.67;;;;;31.16;28.51;101002.13;5075203;28;45711;-83
2023/04/10 09:16:08;;;;;;;;;10.33;10.33;;;;;31.06;29.20;101005.28;5074742;28;46266;-82
2023/04/10 09:18:50;;;;;;;;;12.67;11.67;;;;;31.33;28.07;101007.56;5074964;28;45398;-83
2023/04/10 09:21:19;;;;;;;;;15.33;15.33;;;;;31.72;29.47;101011.97;5066851;28;45437;-79
2023/04/10 09:23:46;;;;;;;;;12.33;11.67;;;;;31.94;27.97;101021.66;5060820;28;45315;-83
2023/04/10 09:26:25;;;;;;;;;14.00;13.00;;;;;32.53;28.32;101033.88;5075375;28;46113;-80
2023/04/10 09:28:56;;;;;;;;;13.00;11.33;;;;;32.00;27.37;101018.66;5075226;28;45518;-84
2023/04/10 09:31:30;;;;;;;;;11.67;10.00;;;;;31.85;28.00;101026.59;5074973;28;45659;-83
2023/04/10 09:34:11;;;;;;;;;10.33;9.67;;;;;32.02;27.91;101041.94;5076111;28;45434;-83
2023/04/10 09:36:37;;;;;;;;;12.00;11.00;;;;;32.41;28.53;101050.72;5075431;27;45462;-84
2023/04/10 09:39:04;;;;;;;;;12.33;10.67;;;;;32.44;26.72;101047.88;5040788;28;45557;-82
2023/04/10 09:41:30;;;;;;;;;14.67;13.67;;;;;32.07;27.32;101052.50;5075756;28;45536;-84
2023/04/10 09:44:09;;;;;;;;;6.00;6.00;;;;;32.04;27.74;101050.00;5075085;28;45532;-84
2023/04/10 09:46:35;;;;;;;;;10.00;10.00;;;;;32.34;27.20;101052.91;5077058;28;46139;-84
2023/04/10 09:49:03;;;;;;;;;11.67;11.33;;;;;32.51;26.98;101065.53;5073550;28;45532;-81
2023/04/10 09:51:31;;;;;;;;;12.67;12.00;;;;;32.19;26.81;101030.28;5070527;28;45568;-81
2023/04/10 09:53:56;;;;;;;;;14.00;12.33;;;;;32.31;26.69;101085.50;5074925;28;45548;-83
2023/04/10 09:56:26;;;;;;;;;11.67;10.67;;;;;32.51;26.28;101079.06;5075452;28;46192;-79
2023/04/10 09:58:58;;;;;;;;;12.00;11.33;;;;;32.57;26.94;101076.06;5053623;28;45678;-79
2023/04/10 10:01:33;;;;;;;;;12.00;12.00;;;;;32.53;26.44;101078.94;5061775;28;45641;-72
2023/04/10 10:04:01;;;;;;;;;11.00;10.67;;;;;32.50;26.03;101071.88;5074878;28;45548;-79
2023/04/10 10:06:32;;;;;;;;;12.00;10.00;;;;;32.23;27.56;101063.41;5074317;28;45567;-83
2023/04/10 10:09:02;;;;;;;;;10.67;10.00;;;;;32.22;26.49;101061.66;5082399;28;45425;-80
2023/04/10 10:11:33;;;;;;;;;10.33;10.33;;;;;31.81;26.97;101053.81;5079656;28;45363;-76
2023/04/10 10:14:02;;;;;;;;;10.33;10.00;;;;;31.82;27.39;101055.59;5078503;28;45613;-81
2023/04/10 10:16:38;;;;;;;;;11.00;11.00;;;;;31.99;26.76;101052.88;5074673;28;45686;-81
2023/04/10 10:19:23;;;;;;;;;11.33;11.33;;;;;31.44;27.03;101026.81;5076836;28;45722;-82
2023/04/10 10:21:50;;;;;;;;;11.00;11.00;;;;;31.48;27.52;101050.06;5078068;27;45373;-81
2023/04/10 10:24:19;;;;;;;;;9.67;9.33;;;;;31.32;26.84;101062.53;5077612;28;45560;-82
2023/04/10 10:26:46;;;;;;;;;9.00;8.33;;;;;31.30;27.20;101064.44;5077900;28;45406;-81
2023/04/10 10:29:16;;;;;;;;;9.33;9.00;;;;;31.49;26.85;101075.22;5079732;28;45384;-82
2023/04/10 10:31:42;;;;;;;;;9.33;9.33;;;;;31.34;27.51;101084.94;5079097;28;45529;-77
2023/04/10 10:34:08;;;;;;;;;9.67;9.00;;;;;31.13;27.99;101087.69;5061370;28;45505;-82
2023/04/10 10:36:36;;;;;;;;;8.00;7.67;;;;;31.24;28.11;101094.41;5079075;28;45950;-82
2023/04/10 10:39:10;;;;;;;;;9.33;9.33;;;;;31.20;27.49;101099.09;5080211;28;45326;-71
2023/04/10 10:41:53;;;;;;;;;10.00;8.33;;;;;30.80;28.92;101084.72;5061886;28;45532;-80
2023/04/10 10:44:45;;;;;;;;;8.67;8.33;;;;;30.88;28.42;101084.38;5080847;28;45438;-79
2023/04/10 10:47:22;;;;;;;;;13.33;11.67;;;;;30.46;29.11;101077.28;5076434;27;45545;-80
2023/04/10 10:49:58;;;;;;;;;8.00;8.00;;;;;29.84;28.93;101077.22;5064795;28;45435;-79
2023/04/10 10:52:43;;;;;;;;;10.67;10.67;;;;;29.73;30.78;101084.88;5047557;28;45571;-80
2023/04/10 10:55:21;;;;;;;;;12.33;12.33;;;;;29.99;30.39;101091.84;5057976;28;45643;-75
2023/04/10 10:57:52;;;;;;;;;13.33;11.00;;;;;30.09;29.56;101086.97;5077654;28;45425;-79
2023/04/10 11:00:18;;;;;;;;;8.33;7.00;;;;;29.91;29.67;101089.50;5077174;27;45561;-75
2023/04/10 11:02:44;;;;;;;;;9.33;9.33;;;;;29.76;29.76;101087.44;5077591;27;45432;-76
2023/04/10 11:05:10;;;;;;;;;8.00;8.00;;;;;29.75;30.43;101109.94;5078471;28;45472;-77
2023/04/10 11:07:59;;;;;;;;;5.00;5.00;;;;;29.73;30.31;101103.72;5063474;28;45850;-68
2023/04/10 11:11:06;;;;;;;;;10.00;10.00;;;;;29.60;30.40;101102.44;5077828;28;45658;-73
2023/04/10 11:13:37;;;;;;;;;10.00;8.00;;;;;29.39;30.35;101099.69;5079035;28;45306;-68